createdAt,value
2018-02-07T00:00:00.884Z,1.34
2018-02-07T00:01:00.897Z,1.42
2018-02-07T00:02:00.903Z,1.32
2018-02-07T00:03:00.912Z,1.33
2018-02-07T00:04:00.929Z,1.60
2018-02-07T00:05:00.995Z,1.50
2018-02-07T00:06:00.957Z,1.43
2018-02-07T00:07:00.968Z,1.54
2018-02-07T00:08:00.983Z,1.69
2018-02-07T00:09:00.989Z,1.80
2018-02-07T00:10:01.057Z,2.06
2018-02-07T00:11:01.015Z,1.78
2018-02-07T00:12:01.027Z,1.64
2018-02-07T00:13:01.039Z,1.62
2018-02-07T00:14:01.053Z,1.44
2018-02-07T00:15:01.067Z,1.39
2018-02-07T00:16:01.076Z,1.39
2018-02-07T00:17:01.090Z,1.42
2018-02-07T00:18:01.108Z,1.69
2018-02-07T00:19:01.116Z,1.68
2018-02-07T00:20:01.129Z,1.42
2018-02-07T00:21:01.139Z,1.34
2018-02-07T00:22:01.149Z,1.33
2018-02-07T00:23:01.172Z,1.47
2018-02-07T00:24:01.176Z,1.47
2018-02-07T00:25:01.185Z,1.39
2018-02-07T00:26:01.201Z,1.22
2018-02-07T00:27:01.215Z,1.37
2018-02-07T00:28:01.224Z,1.29
2018-02-07T00:29:01.236Z,1.44
2018-02-07T00:30:01.248Z,1.33
2018-02-07T00:31:01.268Z,1.52
2018-02-07T00:32:01.274Z,1.62
2018-02-07T00:33:01.282Z,1.42
2018-02-07T00:34:01.296Z,1.50
2018-02-07T00:35:01.314Z,1.50
2018-02-07T00:36:01.319Z,1.39
2018-02-07T00:37:01.375Z,1.24
2018-02-07T00:38:01.349Z,1.54
2018-02-07T00:39:01.360Z,1.61
2018-02-07T00:40:01.373Z,1.54
2018-02-07T00:41:01.391Z,1.52
2018-02-07T00:42:01.397Z,1.72
2018-02-07T00:43:01.411Z,1.82
2018-02-07T00:44:01.422Z,1.73
2018-02-07T00:45:01.434Z,1.99
2018-02-07T00:46:01.454Z,2.08
2018-02-07T00:47:01.459Z,1.99
2018-02-07T00:48:01.468Z,2.04
2018-02-07T00:49:01.476Z,1.79
2018-02-07T00:50:01.494Z,1.78
2018-02-07T00:51:01.503Z,1.91
2018-02-07T00:52:01.521Z,1.78
2018-02-07T00:53:01.541Z,1.60
2018-02-07T00:54:01.549Z,1.71
2018-02-07T00:55:01.556Z,1.64
2018-02-07T00:56:01.570Z,1.50
2018-02-07T00:57:01.582Z,1.82
2018-02-07T00:58:01.592Z,1.79
2018-02-07T00:59:01.606Z,1.68
2018-02-07T01:00:01.618Z,1.52
2018-02-07T01:01:01.632Z,1.47
2018-02-07T01:02:01.642Z,2.04
2018-02-07T01:03:01.661Z,1.98
2018-02-07T01:04:01.668Z,1.79
2018-02-07T01:05:01.679Z,1.80
2018-02-07T01:06:01.695Z,1.62
2018-02-07T01:07:01.702Z,1.80
2018-02-07T01:08:01.711Z,1.78
2018-02-07T01:09:01.722Z,1.58
2018-02-07T01:10:01.739Z,1.58
2018-02-07T01:11:01.751Z,1.50
2018-02-07T01:12:01.767Z,1.61
2018-02-07T01:13:01.775Z,1.91
2018-02-07T01:14:01.818Z,2.09
2018-02-07T01:15:01.809Z,2.34
2018-02-07T01:16:01.814Z,2.34
2018-02-07T01:17:01.829Z,2.40
2018-02-07T01:18:01.847Z,2.38
2018-02-07T01:19:01.857Z,2.41
2018-02-07T01:20:01.866Z,2.48
2018-02-07T01:21:01.929Z,2.40
2018-02-07T01:22:01.888Z,2.37
2018-02-07T01:23:01.901Z,2.19
2018-02-07T01:24:01.921Z,1.80
2018-02-07T01:25:01.927Z,1.61
2018-02-07T01:26:01.939Z,1.60
2018-02-07T01:27:01.948Z,1.61
2018-02-07T01:28:01.967Z,1.42
2018-02-07T01:29:01.979Z,1.60
2018-02-07T01:30:01.986Z,1.69
2018-02-07T01:31:02.002Z,1.64
2018-02-07T01:32:02.023Z,1.54
2018-02-07T01:33:02.023Z,1.64
2018-02-07T01:34:02.039Z,1.58
2018-02-07T01:35:02.059Z,1.64
2018-02-07T01:36:02.065Z,2.06
2018-02-07T01:37:02.075Z,2.08
2018-02-07T01:38:02.095Z,2.27
2018-02-07T01:39:02.098Z,2.38
2018-02-07T01:40:02.114Z,2.04
2018-02-07T01:41:02.127Z,1.82
2018-02-07T01:42:02.142Z,1.55
2018-02-07T01:43:02.149Z,1.57
2018-02-07T01:44:02.164Z,1.57
2018-02-07T01:45:02.172Z,1.47
2018-02-07T01:46:02.197Z,1.52
2018-02-07T01:47:02.198Z,1.47
2018-02-07T01:48:02.209Z,1.61
2018-02-07T01:49:02.226Z,1.43
2018-02-07T01:50:02.234Z,1.54
2018-02-07T01:51:02.253Z,1.54
2018-02-07T01:52:02.265Z,1.51
2018-02-07T01:53:02.278Z,1.52
2018-02-07T01:54:02.287Z,1.39
2018-02-07T01:55:02.299Z,1.46
2018-02-07T01:56:02.312Z,1.47
2018-02-07T01:57:02.325Z,1.44
2018-02-07T01:58:02.336Z,1.54
2018-02-07T01:59:02.348Z,1.39
2018-02-07T02:00:02.362Z,1.60
2018-02-07T02:01:02.370Z,1.58
2018-02-07T02:02:02.384Z,1.68
2018-02-07T02:03:02.403Z,1.71
2018-02-07T02:04:02.412Z,1.60
2018-02-07T02:05:02.424Z,1.61
2018-02-07T02:06:02.432Z,1.55
2018-02-07T02:07:02.444Z,1.40
2018-02-07T02:08:02.465Z,1.50
2018-02-07T02:09:02.471Z,1.51
2018-02-07T02:10:02.495Z,1.40
2018-02-07T02:11:02.501Z,1.39
2018-02-07T02:12:02.508Z,1.37
2018-02-07T02:13:02.533Z,1.37
2018-02-07T02:14:02.534Z,1.14
2018-02-07T02:15:02.546Z,1.42
2018-02-07T02:16:02.562Z,1.36
2018-02-07T02:17:02.569Z,1.47
2018-02-07T02:18:02.580Z,1.40
2018-02-07T02:19:02.595Z,1.39
2018-02-07T02:20:02.607Z,1.52
2018-02-07T02:21:02.630Z,1.46
2018-02-07T02:22:02.632Z,1.55
2018-02-07T02:23:02.647Z,1.39
2018-02-07T02:24:02.656Z,1.50
2018-02-07T02:25:02.670Z,1.50
2018-02-07T02:26:02.678Z,1.40
2018-02-07T02:27:02.747Z,1.47
2018-02-07T02:28:02.699Z,1.58
2018-02-07T02:29:02.724Z,1.50
2018-02-07T02:30:02.740Z,1.47
2018-02-07T02:31:02.752Z,1.51
2018-02-07T02:32:02.758Z,1.43
2018-02-07T02:33:02.782Z,1.39
2018-02-07T02:34:02.788Z,1.40
2018-02-07T02:35:02.818Z,1.37
2018-02-07T02:36:02.886Z,1.43
2018-02-07T02:37:02.821Z,1.55
2018-02-07T02:38:02.835Z,1.47
2018-02-07T02:39:02.844Z,1.46
2018-02-07T02:40:02.862Z,1.40
2018-02-07T02:41:02.868Z,1.22
2018-02-07T02:42:02.879Z,1.33
2018-02-07T02:43:02.886Z,1.26
2018-02-07T02:44:02.905Z,1.32
2018-02-07T02:45:02.918Z,1.34
2018-02-07T02:46:02.930Z,1.25
2018-02-07T02:47:02.957Z,1.54
2018-02-07T02:48:02.955Z,1.54
2018-02-07T02:49:02.968Z,1.79
2018-02-07T02:50:02.981Z,1.99
2018-02-07T02:51:02.993Z,1.76
2018-02-07T02:52:03.000Z,1.64
2018-02-07T02:53:03.015Z,1.80
2018-02-07T02:54:03.036Z,1.71
2018-02-07T02:55:03.047Z,1.91
2018-02-07T02:56:03.053Z,2.06
2018-02-07T02:57:03.064Z,1.94
2018-02-07T02:58:03.077Z,2.16
2018-02-07T02:59:03.087Z,2.45
2018-02-07T03:00:03.104Z,2.51
2018-02-07T03:01:03.116Z,2.46
2018-02-07T03:02:03.129Z,1.89
2018-02-07T03:03:03.140Z,1.64
2018-02-07T03:04:03.193Z,1.64
2018-02-07T03:05:03.165Z,1.57
2018-02-07T03:06:03.180Z,1.68
2018-02-07T03:07:03.193Z,1.58
2018-02-07T03:08:03.198Z,1.62
2018-02-07T03:09:03.212Z,1.71
2018-02-07T03:10:03.226Z,2.01
2018-02-07T03:11:03.235Z,2.12
2018-02-07T03:12:03.251Z,2.17
2018-02-07T03:13:03.270Z,2.28
2018-02-07T03:14:03.280Z,1.79
2018-02-07T03:15:03.283Z,1.52
2018-02-07T03:16:03.293Z,1.83
2018-02-07T03:17:03.309Z,2.01
2018-02-07T03:18:03.319Z,1.90
2018-02-07T03:19:03.340Z,1.69
2018-02-07T03:20:03.355Z,1.72
2018-02-07T03:21:03.362Z,1.65
2018-02-07T03:22:03.372Z,1.61
2018-02-07T03:23:03.385Z,1.60
2018-02-07T03:24:03.405Z,1.61
2018-02-07T03:25:03.412Z,1.71
2018-02-07T03:26:03.424Z,1.99
2018-02-07T03:27:03.435Z,2.06
2018-02-07T03:28:03.499Z,1.44
2018-02-07T03:29:03.463Z,1.62
2018-02-07T03:30:03.480Z,1.46
2018-02-07T03:31:03.497Z,1.69
2018-02-07T03:32:03.504Z,1.69
2018-02-07T03:33:03.505Z,1.62
2018-02-07T03:34:03.518Z,1.60
2018-02-07T03:35:03.529Z,1.57
2018-02-07T03:36:03.552Z,1.65
2018-02-07T03:37:03.563Z,1.76
2018-02-07T03:38:03.579Z,1.60
2018-02-07T03:39:03.584Z,1.80
2018-02-07T03:40:03.596Z,1.80
2018-02-07T03:41:03.608Z,1.58
2018-02-07T03:42:03.622Z,1.78
2018-02-07T03:43:03.632Z,1.64
2018-02-07T03:44:03.648Z,1.61
2018-02-07T03:45:03.658Z,1.64
2018-02-07T03:46:03.673Z,1.37
2018-02-07T03:47:03.682Z,1.78
2018-02-07T03:48:03.707Z,1.73
2018-02-07T03:49:03.712Z,2.08
2018-02-07T03:50:03.722Z,2.28
2018-02-07T03:51:03.730Z,1.78
2018-02-07T03:52:03.743Z,2.02
2018-02-07T03:53:03.760Z,2.20
2018-02-07T03:54:03.773Z,2.55
2018-02-07T03:55:03.783Z,2.37
2018-02-07T03:56:03.794Z,2.35
2018-02-07T03:57:03.827Z,2.41
2018-02-07T03:58:03.817Z,2.55
2018-02-07T03:59:03.833Z,2.12
2018-02-07T04:00:03.843Z,2.37
2018-02-07T04:01:03.854Z,2.22
2018-02-07T04:02:03.866Z,2.20
2018-02-07T04:03:03.877Z,2.19
2018-02-07T04:04:03.894Z,2.35
2018-02-07T04:05:03.907Z,2.34
2018-02-07T04:06:03.916Z,2.59
2018-02-07T04:07:03.935Z,2.49
2018-02-07T04:08:03.942Z,2.46
2018-02-07T04:09:03.954Z,2.53
2018-02-07T04:10:03.965Z,2.48
2018-02-07T04:11:03.976Z,2.40
2018-02-07T04:12:04.000Z,2.06
2018-02-07T04:13:04.004Z,1.72
2018-02-07T04:14:04.015Z,1.90
2018-02-07T04:15:04.032Z,2.35
2018-02-07T04:16:04.042Z,2.67
2018-02-07T04:17:04.058Z,2.52
2018-02-07T04:18:04.069Z,2.59
2018-02-07T04:19:04.077Z,2.34
2018-02-07T04:20:04.083Z,2.09
2018-02-07T04:21:04.101Z,2.28
2018-02-07T04:22:04.114Z,2.41
2018-02-07T04:23:04.120Z,2.28
2018-02-07T04:24:04.140Z,2.10
2018-02-07T04:25:04.158Z,1.82
2018-02-07T04:26:04.165Z,1.80
2018-02-07T04:27:04.173Z,2.27
2018-02-07T04:28:04.194Z,2.33
2018-02-07T04:29:04.209Z,2.53
2018-02-07T04:30:04.209Z,2.19
2018-02-07T04:31:04.225Z,1.79
2018-02-07T04:32:04.246Z,2.02
2018-02-07T04:33:04.253Z,2.13
2018-02-07T04:34:04.262Z,2.37
2018-02-07T04:35:04.272Z,2.33
2018-02-07T04:36:04.315Z,2.12
2018-02-07T04:37:04.301Z,1.93
2018-02-07T04:38:04.316Z,1.69
2018-02-07T04:39:04.320Z,1.83
2018-02-07T04:40:04.334Z,1.79
2018-02-07T04:41:04.349Z,1.76
2018-02-07T04:42:04.359Z,1.78
2018-02-07T04:43:04.379Z,1.71
2018-02-07T04:44:04.382Z,1.57
2018-02-07T04:45:04.395Z,1.91
2018-02-07T04:46:04.409Z,1.61
2018-02-07T04:47:04.427Z,1.73
2018-02-07T04:48:04.434Z,1.58
2018-02-07T04:49:04.451Z,1.68
2018-02-07T04:50:04.463Z,1.62
2018-02-07T04:51:04.476Z,1.57
2018-02-07T04:52:04.489Z,1.68
2018-02-07T04:53:04.498Z,1.72
2018-02-07T04:54:04.512Z,1.57
2018-02-07T04:55:04.522Z,1.71
2018-02-07T04:56:04.546Z,1.65
2018-02-07T04:57:04.552Z,1.61
2018-02-07T04:58:04.560Z,1.62
2018-02-07T04:59:04.569Z,1.52
2018-02-07T05:00:04.580Z,1.43
2018-02-07T05:01:04.595Z,1.52
2018-02-07T05:02:04.612Z,1.55
2018-02-07T05:03:04.622Z,1.52
2018-02-07T05:04:04.640Z,1.54
2018-02-07T05:05:04.648Z,1.64
2018-02-07T05:06:04.683Z,1.90
2018-02-07T05:07:04.673Z,2.17
2018-02-07T05:08:04.681Z,1.89
2018-02-07T05:09:04.697Z,1.64
2018-02-07T05:10:04.707Z,1.65
2018-02-07T05:11:04.720Z,1.68
2018-02-07T05:12:04.736Z,1.76
2018-02-07T05:13:04.745Z,1.79
2018-02-07T05:14:04.763Z,1.82
2018-02-07T05:15:04.777Z,2.22
2018-02-07T05:16:04.785Z,1.80
2018-02-07T05:17:04.794Z,1.54
2018-02-07T05:18:04.871Z,1.55
2018-02-07T05:19:04.816Z,1.76
2018-02-07T05:20:04.823Z,1.83
2018-02-07T05:21:04.840Z,2.10
2018-02-07T05:22:04.871Z,2.09
2018-02-07T05:23:04.867Z,1.78
2018-02-07T05:24:04.898Z,1.47
2018-02-07T05:25:04.890Z,1.54
2018-02-07T05:26:04.909Z,1.40
2018-02-07T05:27:04.915Z,1.46
2018-02-07T05:28:04.932Z,1.34
2018-02-07T05:29:04.943Z,1.34
2018-02-07T05:30:04.955Z,1.33
2018-02-07T05:31:04.965Z,1.28
2018-02-07T05:32:05.028Z,1.34
2018-02-07T05:33:05.080Z,1.34
2018-02-07T05:34:05.006Z,1.34
2018-02-07T05:35:05.014Z,1.28
2018-02-07T05:36:05.041Z,1.32
2018-02-07T05:37:05.040Z,1.40
2018-02-07T05:38:05.046Z,1.60
2018-02-07T05:39:05.064Z,1.83
2018-02-07T05:40:05.086Z,1.80
2018-02-07T05:41:05.087Z,1.99
2018-02-07T05:42:05.100Z,2.06
2018-02-07T05:43:05.122Z,1.60
2018-02-07T05:44:05.126Z,1.64
2018-02-07T05:45:05.140Z,1.50
2018-02-07T05:46:05.150Z,1.39
2018-02-07T05:47:05.159Z,1.40
2018-02-07T05:48:05.186Z,1.62
2018-02-07T05:49:05.186Z,1.47
2018-02-07T05:50:05.202Z,1.52
2018-02-07T05:51:05.209Z,1.57
2018-02-07T05:52:05.218Z,1.39
2018-02-07T05:53:05.227Z,1.82
2018-02-07T05:54:05.248Z,2.22
2018-02-07T05:55:05.260Z,2.19
2018-02-07T05:56:05.271Z,2.10
2018-02-07T05:57:05.288Z,2.08
2018-02-07T05:58:05.302Z,1.62
2018-02-07T05:59:05.304Z,1.61
2018-02-07T06:00:05.332Z,1.33
2018-02-07T06:01:05.375Z,1.40
2018-02-07T06:02:05.339Z,1.40
2018-02-07T06:03:05.359Z,1.37
2018-02-07T06:04:05.368Z,1.28
2018-02-07T06:05:05.390Z,1.24
2018-02-07T06:06:05.391Z,1.24
2018-02-07T06:07:05.426Z,1.21
2018-02-07T06:08:05.415Z,1.21
2018-02-07T06:09:05.429Z,1.21
2018-02-07T06:10:05.446Z,1.28
2018-02-07T06:11:05.453Z,1.22
2018-02-07T06:12:05.514Z,1.10
2018-02-07T06:13:05.481Z,1.24
2018-02-07T06:14:05.491Z,1.24
2018-02-07T06:15:05.513Z,1.12
2018-02-07T06:16:05.521Z,1.18
2018-02-07T06:17:05.526Z,1.24
2018-02-07T06:18:05.540Z,1.19
2018-02-07T06:19:05.563Z,1.25
2018-02-07T06:20:05.557Z,1.15
2018-02-07T06:21:05.571Z,1.14
2018-02-07T06:22:05.592Z,1.04
2018-02-07T06:23:05.605Z,1.25
2018-02-07T06:24:05.612Z,1.22
2018-02-07T06:25:05.625Z,1.15
2018-02-07T06:26:05.638Z,1.21
2018-02-07T06:27:05.649Z,1.37
2018-02-07T06:28:05.659Z,1.50
2018-02-07T06:29:05.674Z,1.25
2018-02-07T06:30:05.684Z,1.18
2018-02-07T06:31:05.694Z,1.10
2018-02-07T06:32:05.707Z,1.07
2018-02-07T06:33:05.721Z,1.22
2018-02-07T06:34:05.735Z,1.19
2018-02-07T06:35:05.744Z,1.15
2018-02-07T06:36:05.757Z,1.06
2018-02-07T06:37:05.769Z,1.14
2018-02-07T06:38:05.780Z,1.03
2018-02-07T06:39:05.788Z,1.12
2018-02-07T06:40:05.801Z,1.06
2018-02-07T06:41:05.817Z,1.10
2018-02-07T06:42:05.835Z,1.06
2018-02-07T06:43:05.842Z,1.18
2018-02-07T06:44:05.864Z,1.21
2018-02-07T06:45:05.866Z,1.25
2018-02-07T06:46:05.877Z,1.21
2018-02-07T06:47:05.888Z,1.19
2018-02-07T06:48:05.898Z,1.19
2018-02-07T06:49:05.914Z,1.18
2018-02-07T06:50:05.928Z,1.28
2018-02-07T06:51:05.940Z,1.28
2018-02-07T06:52:05.951Z,1.15
2018-02-07T06:53:05.964Z,1.34
2018-02-07T06:54:05.977Z,1.22
2018-02-07T06:55:05.985Z,1.28
2018-02-07T06:56:05.999Z,1.21
2018-02-07T06:57:06.010Z,1.34
2018-02-07T06:58:06.023Z,1.69
2018-02-07T06:59:06.028Z,1.91
2018-02-07T07:00:06.050Z,1.82
2018-02-07T07:01:06.063Z,1.46
2018-02-07T07:02:06.075Z,1.33
2018-02-07T07:03:06.085Z,1.33
2018-02-07T07:04:06.096Z,1.24
2018-02-07T07:05:06.107Z,1.26
2018-02-07T07:06:06.119Z,1.34
2018-02-07T07:07:06.131Z,1.36
2018-02-07T07:08:06.237Z,1.43
2018-02-07T07:09:06.156Z,1.28
2018-02-07T07:10:06.170Z,1.15
2018-02-07T07:11:06.178Z,1.39
2018-02-07T07:12:06.195Z,2.06
2018-02-07T07:13:06.205Z,1.85
2018-02-07T07:14:06.214Z,2.16
2018-02-07T07:15:06.229Z,2.06
2018-02-07T07:16:06.286Z,2.28
2018-02-07T07:17:06.253Z,2.12
2018-02-07T07:18:06.262Z,1.75
2018-02-07T07:19:06.277Z,1.61
2018-02-07T07:20:06.312Z,1.50
2018-02-07T07:21:06.308Z,1.47
2018-02-07T07:22:06.322Z,1.40
2018-02-07T07:23:06.335Z,1.43
2018-02-07T07:24:06.335Z,1.39
2018-02-07T07:25:06.345Z,1.50
2018-02-07T07:26:06.356Z,1.62
2018-02-07T07:27:06.374Z,1.58
2018-02-07T07:28:06.398Z,1.57
2018-02-07T07:29:06.404Z,1.58
2018-02-07T07:30:06.409Z,1.57
2018-02-07T07:31:06.430Z,1.55
2018-02-07T07:32:06.469Z,1.58
2018-02-07T07:33:06.446Z,1.61
2018-02-07T07:34:06.456Z,1.83
2018-02-07T07:35:06.471Z,2.22
2018-02-07T07:36:06.504Z,2.13
2018-02-07T07:37:06.499Z,2.45
2018-02-07T07:38:06.517Z,2.09
2018-02-07T07:39:06.521Z,1.78
2018-02-07T07:40:06.544Z,1.64
2018-02-07T07:41:06.547Z,1.61
2018-02-07T07:42:06.557Z,1.57
2018-02-07T07:43:06.570Z,1.60
2018-02-07T07:44:06.599Z,1.62
2018-02-07T07:45:06.593Z,1.87
2018-02-07T07:46:06.607Z,2.16
2018-02-07T07:47:06.626Z,1.76
2018-02-07T07:48:06.630Z,1.64
2018-02-07T07:49:06.645Z,1.39
2018-02-07T07:50:06.661Z,1.78
2018-02-07T07:51:06.665Z,2.19
2018-02-07T07:52:06.678Z,1.82
2018-02-07T07:53:06.691Z,1.60
2018-02-07T07:54:06.701Z,1.34
2018-02-07T07:55:06.717Z,1.24
2018-02-07T07:56:06.728Z,1.28
2018-02-07T07:57:06.752Z,1.36
2018-02-07T07:58:06.752Z,1.32
2018-02-07T07:59:06.778Z,1.28
2018-02-07T08:00:06.794Z,1.22
2018-02-07T08:01:06.791Z,1.22
2018-02-07T08:02:06.895Z,1.40
2018-02-07T08:03:06.812Z,1.28
2018-02-07T08:04:06.826Z,1.43
2018-02-07T08:05:06.839Z,1.57
2018-02-07T08:06:06.858Z,1.71
2018-02-07T08:07:06.867Z,1.46
2018-02-07T08:08:06.883Z,1.40
2018-02-07T08:09:06.992Z,1.36
2018-02-07T08:10:06.897Z,1.43
2018-02-07T08:11:06.911Z,1.26
2018-02-07T08:12:06.924Z,1.37
2018-02-07T08:13:06.938Z,1.32
2018-02-07T08:14:06.950Z,1.19
2018-02-07T08:15:06.964Z,1.29
2018-02-07T08:16:06.976Z,1.51
2018-02-07T08:17:06.998Z,1.25
2018-02-07T08:18:06.998Z,1.29
2018-02-07T08:19:07.011Z,1.37
2018-02-07T08:20:07.022Z,1.18
2018-02-07T08:21:07.048Z,1.37
2018-02-07T08:22:07.048Z,1.58
2018-02-07T08:23:07.062Z,1.62
2018-02-07T08:24:07.082Z,2.30
2018-02-07T08:25:07.092Z,2.35
2018-02-07T08:26:07.096Z,2.38
2018-02-07T08:27:07.103Z,2.33
2018-02-07T08:28:07.124Z,2.08
2018-02-07T08:29:07.141Z,1.80
2018-02-07T08:30:07.148Z,1.58
2018-02-07T08:31:07.158Z,1.43
2018-02-07T08:32:07.172Z,1.54
2018-02-07T08:33:07.186Z,1.47
2018-02-07T08:34:07.200Z,1.50
2018-02-07T08:35:07.208Z,1.39
2018-02-07T08:36:07.219Z,1.40
2018-02-07T08:37:07.235Z,1.36
2018-02-07T08:38:07.248Z,1.87
2018-02-07T08:39:07.260Z,2.22
2018-02-07T08:40:07.269Z,2.40
2018-02-07T08:41:07.324Z,2.31
2018-02-07T08:42:07.292Z,2.40
2018-02-07T08:43:07.311Z,1.90
2018-02-07T08:44:07.320Z,1.58
2018-02-07T08:45:07.334Z,1.73
2018-02-07T08:46:07.344Z,2.12
2018-02-07T08:47:07.359Z,1.42
2018-02-07T08:48:07.365Z,1.55
2018-02-07T08:49:07.381Z,1.47
2018-02-07T08:50:07.393Z,1.60
2018-02-07T08:51:07.407Z,1.72
2018-02-07T08:52:07.425Z,1.65
2018-02-07T08:53:07.429Z,1.62
2018-02-07T08:54:07.442Z,1.57
2018-02-07T08:55:07.456Z,1.60
2018-02-07T08:56:07.470Z,1.46
2018-02-07T08:57:07.480Z,2.12
2018-02-07T08:58:07.494Z,2.41
2018-02-07T08:59:07.523Z,2.45
2018-02-07T09:00:07.537Z,2.64
2018-02-07T09:01:07.537Z,2.79
2018-02-07T09:02:07.545Z,2.79
2018-02-07T09:03:07.559Z,2.66
2018-02-07T09:04:07.568Z,2.59
2018-02-07T09:05:07.580Z,2.17
2018-02-07T09:06:07.592Z,2.13
2018-02-07T09:07:07.606Z,2.15
2018-02-07T09:08:07.616Z,2.56
2018-02-07T09:09:07.631Z,2.61
2018-02-07T09:10:07.639Z,2.45
2018-02-07T09:11:07.660Z,2.58
2018-02-07T09:12:07.667Z,2.40
2018-02-07T09:13:07.680Z,2.73
2018-02-07T09:14:07.696Z,2.82
2018-02-07T09:15:07.705Z,2.58
2018-02-07T09:16:07.719Z,2.20
2018-02-07T09:17:07.732Z,2.20
2018-02-07T09:18:07.750Z,2.12
2018-02-07T09:19:07.758Z,2.19
2018-02-07T09:20:07.769Z,2.28
2018-02-07T09:21:07.791Z,2.41
2018-02-07T09:22:07.806Z,2.40
2018-02-07T09:23:07.800Z,2.33
2018-02-07T09:24:07.825Z,2.22
2018-02-07T09:25:07.837Z,2.45
2018-02-07T09:26:07.844Z,2.17
2018-02-07T09:27:07.854Z,1.71
2018-02-07T09:28:07.867Z,2.19
2018-02-07T09:29:07.881Z,2.23
2018-02-07T09:30:07.904Z,2.16
2018-02-07T09:31:07.909Z,2.17
2018-02-07T09:32:07.920Z,2.10
2018-02-07T09:33:07.932Z,2.13
2018-02-07T09:34:07.949Z,2.22
2018-02-07T09:35:07.985Z,2.23
2018-02-07T09:36:07.977Z,2.27
2018-02-07T09:37:07.984Z,2.23
2018-02-07T09:38:07.998Z,2.27
2018-02-07T09:39:08.015Z,2.06
2018-02-07T09:40:08.029Z,2.13
2018-02-07T09:41:08.040Z,2.13
2018-02-07T09:42:08.050Z,2.26
2018-02-07T09:43:08.065Z,2.22
2018-02-07T09:44:08.077Z,2.28
2018-02-07T09:45:08.087Z,2.40
2018-02-07T09:46:08.104Z,2.44
2018-02-07T09:47:08.115Z,2.28
2018-02-07T09:48:08.130Z,2.44
2018-02-07T09:49:08.143Z,2.44
2018-02-07T09:50:08.158Z,2.33
2018-02-07T09:51:08.171Z,2.37
2018-02-07T09:52:08.184Z,2.16
2018-02-07T09:53:08.197Z,2.09
2018-02-07T09:54:08.208Z,2.16
2018-02-07T09:55:08.236Z,2.06
2018-02-07T09:56:08.233Z,2.20
2018-02-07T09:57:08.247Z,2.33
2018-02-07T09:58:08.260Z,2.38
2018-02-07T09:59:08.276Z,2.59
2018-02-07T10:00:08.289Z,2.59
2018-02-07T10:01:08.303Z,2.59
2018-02-07T10:02:08.315Z,2.49
2018-02-07T10:03:08.331Z,2.91
2018-02-07T10:04:08.340Z,3.21
2018-02-07T10:05:08.356Z,3.23
2018-02-07T10:06:08.365Z,2.44
2018-02-07T10:07:08.381Z,2.44
2018-02-07T10:08:08.392Z,2.97
2018-02-07T10:09:08.407Z,3.09
2018-02-07T10:10:08.422Z,2.84
2018-02-07T10:11:08.439Z,2.82
2018-02-07T10:12:08.447Z,2.77
2018-02-07T10:13:08.456Z,2.74
2018-02-07T10:14:08.469Z,2.53
2018-02-07T10:15:08.480Z,2.73
2018-02-07T10:16:08.512Z,2.58
2018-02-07T10:17:08.514Z,2.49
2018-02-07T10:18:08.546Z,2.45
2018-02-07T10:19:08.538Z,2.67
2018-02-07T10:20:08.555Z,2.70
2018-02-07T10:21:08.571Z,2.79
2018-02-07T10:22:08.579Z,2.61
2018-02-07T10:23:08.611Z,2.82
2018-02-07T10:24:08.605Z,2.85
2018-02-07T10:25:08.624Z,2.71
2018-02-07T10:26:08.630Z,2.81
2018-02-07T10:27:08.640Z,2.95
2018-02-07T10:28:08.655Z,3.42
2018-02-07T10:29:08.670Z,3.31
2018-02-07T10:30:08.694Z,2.98
2018-02-07T10:31:08.709Z,3.07
2018-02-07T10:32:08.821Z,2.88
2018-02-07T10:33:08.727Z,2.94
2018-02-07T10:34:08.739Z,3.02
2018-02-07T10:35:08.754Z,2.92
2018-02-07T10:36:08.772Z,3.02
2018-02-07T10:37:08.788Z,3.00
2018-02-07T10:38:08.793Z,3.21
2018-02-07T10:39:08.805Z,3.50
2018-02-07T10:40:08.820Z,3.79
2018-02-07T10:41:08.835Z,3.94
2018-02-07T10:42:08.848Z,4.24
2018-02-07T10:43:08.871Z,4.40
2018-02-07T10:44:08.898Z,3.78
2018-02-07T10:45:08.894Z,3.53
2018-02-07T10:46:08.915Z,3.13
2018-02-07T10:47:08.919Z,3.07
2018-02-07T10:48:08.932Z,3.47
2018-02-07T10:49:08.946Z,3.53
2018-02-07T10:50:08.960Z,3.60
2018-02-07T10:51:08.987Z,3.58
2018-02-07T10:52:08.993Z,3.44
2018-02-07T10:53:09.000Z,3.03
2018-02-07T10:54:09.013Z,2.89
2018-02-07T10:55:09.028Z,3.03
2018-02-07T10:56:09.050Z,2.97
2018-02-07T10:57:09.067Z,2.97
2018-02-07T10:58:09.070Z,3.00
2018-02-07T10:59:09.086Z,3.15
2018-02-07T11:00:09.108Z,3.44
2018-02-07T11:01:09.120Z,3.28
2018-02-07T11:02:09.127Z,3.12
2018-02-07T11:03:09.141Z,3.05
2018-02-07T11:04:09.156Z,3.09
2018-02-07T11:05:09.169Z,3.21
2018-02-07T11:06:09.197Z,3.05
2018-02-07T11:07:09.220Z,3.15
2018-02-07T11:08:09.215Z,3.21
2018-02-07T11:09:09.219Z,3.75
2018-02-07T11:10:09.234Z,3.88
2018-02-07T11:11:09.255Z,4.10
2018-02-07T11:12:09.322Z,3.76
2018-02-07T11:13:09.284Z,3.39
2018-02-07T11:14:09.303Z,3.49
2018-02-07T11:15:09.310Z,3.62
2018-02-07T11:16:09.323Z,3.79
2018-02-07T11:17:09.337Z,3.62
2018-02-07T11:18:09.352Z,4.14
2018-02-07T11:19:09.366Z,4.46
2018-02-07T11:20:09.386Z,4.76
2018-02-07T11:21:09.461Z,4.83
2018-02-07T11:22:09.409Z,4.61
2018-02-07T11:23:09.416Z,4.37
2018-02-07T11:24:09.432Z,4.37
2018-02-07T11:25:09.452Z,4.16
2018-02-07T11:26:09.469Z,4.88
2018-02-07T11:27:09.480Z,4.79
2018-02-07T11:28:09.500Z,4.37
2018-02-07T11:29:09.511Z,4.25
2018-02-07T11:30:09.524Z,4.29
2018-02-07T11:31:09.540Z,4.12
2018-02-07T11:32:09.553Z,4.32
2018-02-07T11:33:09.578Z,4.28
2018-02-07T11:34:09.579Z,4.21
2018-02-07T11:35:09.594Z,4.01
2018-02-07T11:36:09.612Z,4.08
2018-02-07T11:37:09.621Z,4.04
2018-02-07T11:38:09.639Z,3.98
2018-02-07T11:39:09.655Z,4.50
2018-02-07T11:40:09.676Z,4.32
2018-02-07T11:41:09.685Z,4.04
2018-02-07T11:42:09.698Z,3.85
2018-02-07T11:43:09.713Z,3.86
2018-02-07T11:44:09.730Z,4.46
2018-02-07T11:45:09.756Z,4.79
2018-02-07T11:46:09.761Z,4.94
2018-02-07T11:47:09.770Z,5.09
2018-02-07T11:48:09.789Z,4.58
2018-02-07T11:49:09.796Z,4.67
2018-02-07T11:50:09.816Z,4.44
2018-02-07T11:51:09.832Z,4.54
2018-02-07T11:52:09.846Z,4.36
2018-02-07T11:53:09.865Z,4.22
2018-02-07T11:54:09.876Z,4.47
2018-02-07T11:55:09.890Z,4.77
2018-02-07T11:56:09.906Z,5.01
2018-02-07T11:57:09.917Z,4.84
2018-02-07T11:58:09.943Z,4.99
2018-02-07T11:59:09.947Z,5.31
2018-02-07T12:00:09.963Z,5.27
2018-02-07T12:01:09.975Z,5.14
2018-02-07T12:02:09.988Z,5.14
2018-02-07T12:03:10.007Z,5.13
2018-02-07T12:04:10.023Z,4.57
2018-02-07T12:05:10.039Z,4.61
2018-02-07T12:06:10.054Z,5.25
2018-02-07T12:07:10.067Z,5.66
2018-02-07T12:08:10.090Z,5.53
2018-02-07T12:09:10.099Z,5.86
2018-02-07T12:10:10.111Z,5.32
2018-02-07T12:11:10.132Z,5.27
2018-02-07T12:12:10.143Z,5.43
2018-02-07T12:13:10.165Z,5.19
2018-02-07T12:14:10.176Z,5.07
2018-02-07T12:15:10.188Z,5.07
2018-02-07T12:16:10.203Z,4.79
2018-02-07T12:17:10.218Z,4.62
2018-02-07T12:18:10.228Z,5.02
2018-02-07T12:19:10.251Z,5.27
2018-02-07T12:20:10.264Z,5.32
2018-02-07T12:21:10.283Z,5.14
2018-02-07T12:22:10.292Z,5.13
2018-02-07T12:23:10.310Z,5.30
2018-02-07T12:24:10.326Z,5.34
2018-02-07T12:25:10.341Z,5.40
2018-02-07T12:26:10.355Z,5.32
2018-02-07T12:27:10.371Z,5.46
2018-02-07T12:28:10.386Z,5.60
2018-02-07T12:29:10.401Z,5.71
2018-02-07T12:30:10.418Z,5.95
2018-02-07T12:31:10.434Z,6.14
2018-02-07T12:32:10.456Z,6.14
2018-02-07T12:33:10.473Z,6.03
2018-02-07T12:34:10.482Z,6.01
2018-02-07T12:35:10.495Z,6.18
2018-02-07T12:36:10.515Z,6.10
2018-02-07T12:37:10.529Z,5.82
2018-02-07T12:38:10.542Z,6.18
2018-02-07T12:39:10.559Z,6.40
2018-02-07T12:40:10.574Z,6.32
2018-02-07T12:41:10.589Z,6.29
2018-02-07T12:42:10.606Z,6.07
2018-02-07T12:43:10.622Z,6.11
2018-02-07T12:44:10.641Z,6.33
2018-02-07T12:45:10.656Z,6.62
2018-02-07T12:46:10.673Z,6.50
2018-02-07T12:47:10.685Z,5.92
2018-02-07T12:48:10.702Z,5.92
2018-02-07T12:49:10.724Z,5.93
2018-02-07T12:50:10.760Z,6.00
2018-02-07T12:51:10.754Z,6.54
2018-02-07T12:52:10.770Z,6.80
2018-02-07T12:53:10.781Z,6.77
2018-02-07T12:54:10.796Z,6.62
2018-02-07T12:55:10.822Z,6.53
2018-02-07T12:56:10.834Z,6.22
2018-02-07T12:57:10.851Z,6.46
2018-02-07T12:58:10.867Z,6.28
2018-02-07T12:59:10.884Z,6.35
2018-02-07T13:00:10.901Z,6.61
2018-02-07T13:01:10.938Z,6.98
2018-02-07T13:02:10.939Z,7.20
2018-02-07T13:03:10.995Z,7.35
2018-02-07T13:04:10.989Z,6.94
2018-02-07T13:05:10.989Z,6.66
2018-02-07T13:06:11.006Z,6.90
2018-02-07T13:07:11.019Z,6.94
2018-02-07T13:08:11.036Z,6.63
2018-02-07T13:09:11.056Z,6.89
2018-02-07T13:10:11.073Z,6.83
2018-02-07T13:11:11.091Z,6.59
2018-02-07T13:12:11.109Z,7.05
2018-02-07T13:13:11.120Z,6.97
2018-02-07T13:14:11.142Z,7.26
2018-02-07T13:15:11.164Z,6.97
2018-02-07T13:16:11.179Z,7.66
2018-02-07T13:17:11.193Z,7.69
2018-02-07T13:18:11.211Z,7.78